Time;durP1;ratioP1;P1;durP2;ratioP2;P2;SDS_P1;SDS_P2;PMS_P1;PMS_P2;Temp;Humidity;BMP_temperature;BMP_pressure;BME280_temperature;BME280_humidity;BME280_pressure;Samples;Min_cycle;Max_cycle;Signal;HPM_P1;HPM_P2
2021/11/20 00:01:43;;;;;;;7.40;4.07;;;10.70;99.90;;;;;;2603379;54;20605;31
2021/11/20 00:04:21;;;;;;;9.82;4.97;;;10.70;99.90;;;;;;2603421;54;20873;31
2021/11/20 00:06:56;;;;;;;7.30;4.50;;;10.80;99.90;;;;;;2603207;54;20836;31
2021/11/20 00:09:35;;;;;;;10.30;4.47;;;10.70;99.90;;;;;;2621037;46;20018;31
2021/11/20 00:12:13;;;;;;;8.23;4.82;;;10.70;99.90;;;;;;2603496;54;21164;31
2021/11/20 00:14:48;;;;;;;11.68;5.05;;;10.70;99.90;;;;;;2701700;39;20569;31
2021/11/20 00:17:26;;;;;;;7.73;4.70;;;10.80;99.90;;;;;;2603399;54;20093;31
2021/11/20 00:20:02;;;;;;;5.90;4.40;;;10.70;99.90;;;;;;2603349;54;20733;31
2021/11/20 00:22:39;;;;;;;9.70;4.90;;;10.70;99.90;;;;;;2603440;54;20900;31
2021/11/20 00:25:21;;;;;;;6.30;4.38;;;10.70;99.90;;;;;;2603086;54;20291;31
2021/11/20 00:27:56;;;;;;;10.70;4.90;;;10.70;99.90;;;;;;2621402;46;20030;31
2021/11/20 00:30:52;;;;;;;10.13;5.45;;;10.70;99.90;;;;;;2603374;54;20876;31
2021/11/20 00:33:34;;;;;;;8.50;5.43;;;10.70;99.90;;;;;;2603418;54;20044;31
2021/11/20 00:36:14;;;;;;;7.80;5.07;;;10.70;99.90;;;;;;2603221;54;20081;31
2021/11/20 00:38:50;;;;;;;6.28;4.43;;;10.70;99.90;;;;;;2603448;54;20553;31
2021/11/20 00:41:30;;;;;;;7.55;4.75;;;10.70;99.90;;;;;;2603481;54;20031;31
2021/11/20 00:44:08;;;;;;;10.77;5.28;;;10.70;99.90;;;;;;2603278;54;20897;31
2021/11/20 00:46:44;;;;;;;7.37;4.73;;;10.70;99.90;;;;;;2603119;54;20843;31
2021/11/20 00:49:23;;;;;;;9.27;5.25;;;10.70;99.90;;;;;;2603024;54;20304;31
2021/11/20 00:51:58;;;;;;;9.32;5.13;;;10.70;99.90;;;;;;2603092;54;20037;31
2021/11/20 00:54:39;;;;;;;8.13;4.83;;;10.70;99.90;;;;;;2603469;54;20030;31
2021/11/20 00:57:17;;;;;;;9.77;4.97;;;10.70;99.90;;;;;;2603362;54;20900;31
2021/11/20 00:59:54;;;;;;;12.30;5.57;;;10.70;99.90;;;;;;2603327;54;20023;31
2021/11/20 01:02:30;;;;;;;7.30;5.70;;;10.70;99.90;;;;;;2602545;54;20099;31
2021/11/20 01:05:11;;;;;;;10.65;5.40;;;10.80;99.90;;;;;;2603251;54;20108;31
2021/11/20 01:07:48;;;;;;;11.88;5.15;;;10.70;99.90;;;;;;2621898;46;20069;31
2021/11/20 01:10:31;;;;;;;9.20;5.40;;;10.70;99.90;;;;;;2603246;54;20845;31
2021/11/20 01:13:06;;;;;;;10.07;5.75;;;10.80;99.90;;;;;;2621450;46;22445;31
2021/11/20 01:15:46;;;;;;;12.48;5.70;;;10.70;99.90;;;;;;2603400;54;20046;31
2021/11/20 01:18:23;;;;;;;12.00;6.13;;;10.80;99.90;;;;;;2603137;54;20562;31
2021/11/20 01:21:10;;;;;;;9.60;6.00;;;10.80;99.90;;;;;;2603102;54;20604;31
2021/11/20 01:23:57;;;;;;;10.35;5.80;;;10.80;99.90;;;;;;2602869;54;20851;31
2021/11/20 01:26:34;;;;;;;7.95;5.20;;;10.80;99.90;;;;;;2602877;54;20748;31
2021/11/20 01:29:16;;;;;;;9.30;5.90;;;10.80;99.90;;;;;;2603229;54;20030;31
2021/11/20 01:31:57;;;;;;;9.60;5.93;;;10.80;99.90;;;;;;2603243;54;20829;31
2021/11/20 01:34:39;;;;;;;11.93;5.93;;;10.80;99.90;;;;;;2603151;54;20033;31
2021/11/20 01:37:36;;;;;;;11.00;5.90;;;10.70;99.90;;;;;;2621142;46;20046;31
2021/11/20 01:40:16;;;;;;;13.48;5.72;;;10.80;99.90;;;;;;2603074;54;20042;31
2021/11/20 01:42:57;;;;;;;9.63;5.90;;;10.80;99.90;;;;;;2621150;46;20879;31
2021/11/20 01:45:37;;;;;;;10.55;6.30;;;10.80;99.90;;;;;;2603041;54;20794;31
2021/11/20 01:48:27;;;;;;;10.05;5.15;;;10.80;99.90;;;;;;2621504;46;20104;31
2021/11/20 01:51:07;;;;;;;10.50;6.05;;;10.80;99.90;;;;;;2603123;54;20031;31
2021/11/20 01:53:55;;;;;;;9.75;6.80;;;10.80;99.90;;;;;;2621459;46;20165;31
2021/11/20 01:59:31;;;;;;;13.93;7.00;;;10.80;99.90;;;;;;2603237;54;20584;31
2021/11/20 02:02:30;;;;;;;10.07;5.90;;;10.80;99.90;;;;;;2603267;54;20045;31
2021/11/20 02:05:24;;;;;;;12.35;6.28;;;10.80;99.90;;;;;;2602975;54;20782;31
2021/11/20 02:08:20;;;;;;;11.70;6.25;;;10.90;99.90;;;;;;2602983;54;20725;31
2021/11/20 02:11:09;;;;;;;10.40;5.95;;;10.80;99.90;;;;;;2602910;54;20045;31
2021/11/20 02:13:47;;;;;;;9.35;6.35;;;10.90;99.90;;;;;;2602718;54;20030;31
2021/11/20 02:16:27;;;;;;;10.05;6.40;;;10.80;99.90;;;;;;2602848;54;20038;31
2021/11/20 02:19:14;;;;;;;8.73;7.28;;;10.90;99.90;;;;;;2602863;54;20910;31
2021/11/20 02:21:52;;;;;;;13.20;6.30;;;10.90;99.90;;;;;;2602918;54;20030;31
2021/11/20 02:24:36;;;;;;;10.55;6.50;;;10.90;99.90;;;;;;2602649;54;20850;31
2021/11/20 02:30:19;;;;;;;12.57;6.82;;;10.90;99.90;;;;;;2602820;54;20875;31
2021/11/20 02:32:57;;;;;;;10.17;7.27;;;10.80;99.90;;;;;;2621109;47;20030;31
2021/11/20 02:35:59;;;;;;;10.20;6.63;;;10.80;99.90;;;;;;2602873;54;20909;31
2021/11/20 02:41:19;;;;;;;10.45;6.45;;;10.80;99.90;;;;;;2602492;54;20030;31
2021/11/20 02:44:03;;;;;;;10.27;6.45;;;10.80;99.90;;;;;;2602629;54;20026;31
2021/11/20 02:58:41;;;;;;;10.05;6.88;;;10.80;99.90;;;;;;2603724;54;20091;31
2021/11/20 03:01:35;;;;;;;11.30;7.75;;;10.80;99.90;;;;;;2603679;54;20023;31
2021/11/20 03:04:33;;;;;;;12.85;7.35;;;10.80;99.90;;;;;;2603773;54;20809;31
2021/11/20 03:07:15;;;;;;;10.30;7.80;;;10.80;99.90;;;;;;2603826;54;20770;31
2021/11/20 03:09:53;;;;;;;10.77;7.70;;;10.80;99.90;;;;;;2603555;54;20093;31
2021/11/20 03:15:09;;;;;;;16.40;8.20;;;10.80;99.90;;;;;;2603479;54;20097;31
2021/11/20 03:17:54;;;;;;;11.10;7.30;;;10.80;99.90;;;;;;2622148;46;20859;31
2021/11/20 03:20:40;;;;;;;13.97;8.10;;;10.80;99.90;;;;;;2622441;46;20085;31
2021/11/20 03:23:21;;;;;;;14.30;7.90;;;10.80;99.90;;;;;;2621894;46;20053;31
2021/11/20 03:26:06;;;;;;;10.80;8.40;;;10.80;99.90;;;;;;2603271;54;20053;31
2021/11/20 03:28:45;;;;;;;;;;;10.80;99.90;;;;;;2603594;54;20888;31
2021/11/20 03:31:22;;;;;;;13.15;8.27;;;10.80;99.90;;;;;;2621882;46;20831;31
2021/11/20 03:33:58;;;;;;;15.60;9.00;;;10.80;99.90;;;;;;2603657;54;20813;31
2021/11/20 03:36:38;;;;;;;14.32;9.13;;;10.80;99.90;;;;;;2603610;54;20029;31
2021/11/20 03:39:19;;;;;;;15.48;9.60;;;10.80;99.90;;;;;;2602618;54;20084;31
2021/11/20 03:41:58;;;;;;;11.23;8.82;;;10.80;99.90;;;;;;2622314;46;20905;31
2021/11/20 03:44:35;;;;;;;16.80;9.00;;;10.80;99.90;;;;;;2603364;54;20754;31
2021/11/20 03:47:13;;;;;;;12.45;9.50;;;10.80;99.90;;;;;;2603458;54;20081;31
2021/11/20 03:49:49;;;;;;;15.75;9.88;;;10.80;99.90;;;;;;2621979;46;20740;31
2021/11/20 03:52:37;;;;;;;13.93;9.30;;;10.80;99.90;;;;;;2603388;54;20743;31
2021/11/20 03:57:48;;;;;;;15.83;9.90;;;10.80;99.90;;;;;;2621413;46;20243;31
2021/11/20 04:00:28;;;;;;;15.07;10.07;;;10.80;99.90;;;;;;2602964;54;20058;31
2021/11/20 04:03:05;;;;;;;15.70;9.65;;;10.80;99.90;;;;;;2603413;54;20824;31
2021/11/20 04:05:44;;;;;;;13.20;9.23;;;10.80;99.90;;;;;;2602971;54;22423;31
2021/11/20 04:08:22;;;;;;;14.13;9.48;;;10.70;99.90;;;;;;2602828;54;20087;31
2021/11/20 04:11:05;;;;;;;15.63;9.02;;;10.70;99.90;;;;;;2603439;54;20878;31
2021/11/20 04:13:41;;;;;;;12.93;9.05;;;10.70;99.90;;;;;;2619004;46;20025;31
2021/11/20 04:16:23;;;;;;;14.67;9.40;;;10.70;99.90;;;;;;2606662;46;19946;31
2021/11/20 04:19:00;;;;;;;13.55;9.30;;;10.70;99.90;;;;;;2621876;46;20740;31
2021/11/20 04:21:41;;;;;;;16.05;9.65;;;10.70;99.90;;;;;;2603446;54;20081;31
2021/11/20 04:24:25;;;;;;;13.70;9.70;;;10.70;99.90;;;;;;2621640;46;20793;31
2021/11/20 04:27:14;;;;;;;13.50;9.65;;;10.70;99.90;;;;;;2603406;54;20842;31
2021/11/20 04:30:16;;;;;;;16.33;9.55;;;10.70;99.90;;;;;;2603468;54;20022;31
2021/11/20 04:32:55;;;;;;;14.10;8.95;;;10.70;99.90;;;;;;2603407;54;20057;31
2021/11/20 04:35:32;;;;;;;13.93;9.13;;;10.70;99.90;;;;;;2603371;54;20835;31
2021/11/20 04:38:09;;;;;;;12.85;8.77;;;10.70;99.90;;;;;;2603262;54;20089;31
2021/11/20 04:40:49;;;;;;;13.25;9.80;;;10.70;99.90;;;;;;2621503;46;20821;31
2021/11/20 04:43:27;;;;;;;12.43;9.00;;;10.70;99.90;;;;;;2603226;54;20085;31
2021/11/20 04:46:03;;;;;;;14.02;9.50;;;10.70;99.90;;;;;;2621836;46;20026;31
2021/11/20 04:48:41;;;;;;;14.60;9.55;;;10.70;99.90;;;;;;2603325;54;20930;31
2021/11/20 04:51:18;;;;;;;11.95;8.27;;;10.70;99.90;;;;;;2621406;46;20018;31
2021/11/20 04:53:54;;;;;;;14.18;9.90;;;10.70;99.90;;;;;;2603342;54;20034;31
2021/11/20 04:56:36;;;;;;;16.10;9.50;;;10.70;99.90;;;;;;2602447;54;20038;31
2021/11/20 04:59:16;;;;;;;14.00;9.03;;;10.60;99.90;;;;;;2602335;54;20902;31
2021/11/20 05:01:51;;;;;;;13.80;9.20;;;10.70;99.90;;;;;;2602637;54;21201;31
2021/11/20 05:04:31;;;;;;;14.25;9.00;;;10.60;99.90;;;;;;2603109;54;20860;31
2021/11/20 05:07:08;;;;;;;13.70;9.10;;;10.70;99.90;;;;;;2603406;54;20030;31
2021/11/20 05:09:45;;;;;;;12.73;8.20;;;10.70;99.90;;;;;;2603154;54;20105;31
2021/11/20 05:12:25;;;;;;;12.98;8.90;;;10.70;99.90;;;;;;2603065;54;19986;31
2021/11/20 05:15:08;;;;;;;15.40;9.05;;;10.70;99.90;;;;;;2603107;54;20916;31
2021/11/20 05:17:43;;;;;;;14.40;9.65;;;10.70;99.90;;;;;;2701553;39;20500;31
2021/11/20 05:20:42;;;;;;;13.07;8.88;;;10.70;99.90;;;;;;2603226;54;20093;31
2021/11/20 05:23:20;;;;;;;14.32;9.35;;;10.70;99.90;;;;;;2621747;46;19946;31
2021/11/20 05:25:55;;;;;;;19.52;10.73;;;10.70;99.90;;;;;;2603194;54;20038;31
2021/11/20 05:28:37;;;;;;;14.85;9.85;;;10.70;99.90;;;;;;2603073;54;20137;31
2021/11/20 05:31:13;;;;;;;18.00;9.98;;;10.70;99.90;;;;;;2621461;46;20915;31
2021/11/20 05:33:52;;;;;;;12.38;9.00;;;10.70;99.90;;;;;;2603021;54;20123;31
2021/11/20 05:36:40;;;;;;;13.55;9.05;;;10.70;99.90;;;;;;2602864;54;20833;31
2021/11/20 05:42:16;;;;;;;12.23;8.23;;;10.60;99.90;;;;;;2602809;54;20052;31
2021/11/20 05:44:59;;;;;;;12.80;8.80;;;10.60;99.90;;;;;;2621471;46;20896;31
2021/11/20 05:47:40;;;;;;;12.93;9.37;;;10.60;99.90;;;;;;2602928;54;20036;31
2021/11/20 05:50:19;;;;;;;12.07;9.27;;;10.60;99.90;;;;;;2603123;54;21073;31
2021/11/20 05:53:05;;;;;;;12.65;8.70;;;10.60;99.90;;;;;;2603176;54;20897;31
2021/11/20 05:55:41;;;;;;;17.40;9.35;;;10.60;99.90;;;;;;2603049;54;20033;31
2021/11/20 05:58:15;;;;;;;;;;;10.60;99.90;;;;;;2603350;54;20069;31
2021/11/20 06:01:00;;;;;;;15.10;10.55;;;10.50;99.90;;;;;;2602898;54;20028;31
2021/11/20 06:03:39;;;;;;;14.40;9.50;;;10.50;99.90;;;;;;2602974;54;20656;31
2021/11/20 06:06:15;;;;;;;15.43;9.38;;;10.50;99.90;;;;;;2603002;54;20926;31
2021/11/20 06:08:53;;;;;;;13.80;10.07;;;10.50;99.90;;;;;;2606601;46;20793;31
2021/11/20 06:11:31;;;;;;;14.60;10.20;;;10.40;99.90;;;;;;2621364;46;21126;31
2021/11/20 06:14:09;;;;;;;17.90;10.10;;;10.40;99.90;;;;;;2701510;39;20543;31
2021/11/20 06:16:51;;;;;;;14.40;10.38;;;10.30;99.90;;;;;;2602086;54;20057;31
2021/11/20 06:19:28;;;;;;;18.45;10.88;;;10.40;99.90;;;;;;2602913;54;20780;31
2021/11/20 06:22:08;;;;;;;14.73;10.15;;;10.40;99.90;;;;;;2621043;47;20038;31
2021/11/20 06:24:46;;;;;;;16.23;11.50;;;10.30;99.90;;;;;;2622216;46;20584;31
2021/11/20 06:27:31;;;;;;;22.95;13.32;;;10.30;99.90;;;;;;2603516;54;20920;31
2021/11/20 06:30:14;;;;;;;16.90;11.50;;;10.30;99.90;;;;;;2603917;54;20030;31
2021/11/20 06:32:56;;;;;;;19.05;12.20;;;10.30;99.90;;;;;;2702091;39;22605;31
2021/11/20 06:36:00;;;;;;;16.52;12.05;;;10.30;99.90;;;;;;2603584;54;20051;31
2021/11/20 06:38:49;;;;;;;18.97;13.53;;;10.30;99.90;;;;;;2603567;54;20072;31
2021/11/20 06:41:25;;;;;;;16.80;12.88;;;10.20;99.90;;;;;;2603883;54;21052;31
2021/11/20 06:44:02;;;;;;;15.80;13.67;;;10.20;99.90;;;;;;2701905;39;22399;31
2021/11/20 06:46:37;;;;;;;21.92;13.95;;;10.20;99.90;;;;;;2602484;54;20234;31
2021/11/20 06:49:16;;;;;;;19.43;13.30;;;10.20;99.90;;;;;;2603829;54;20910;31
2021/11/20 06:51:58;;;;;;;;;;;10.20;99.90;;;;;;2603865;54;20148;31
2021/11/20 06:54:58;;;;;;;18.20;13.47;;;10.20;99.90;;;;;;2603795;54;19961;31
2021/11/20 06:58:08;;;;;;;19.33;13.38;;;10.10;99.90;;;;;;2603595;54;20855;31
2021/11/20 07:01:06;;;;;;;18.70;13.80;;;10.10;99.90;;;;;;2603695;54;20031;31
2021/11/20 07:03:58;;;;;;;20.95;15.40;;;10.10;99.90;;;;;;2603776;54;20811;31
2021/11/20 07:06:32;;;;;;;23.90;14.95;;;10.10;99.90;;;;;;2603674;54;20069;31
2021/11/20 07:09:12;;;;;;;24.10;16.65;;;10.10;99.90;;;;;;2621832;46;20026;31
2021/11/20 07:11:48;;;;;;;24.20;16.13;;;10.00;99.90;;;;;;2603464;54;20022;31
2021/11/20 07:14:25;;;;;;;21.37;15.90;;;10.10;99.90;;;;;;2603751;54;20869;31
2021/11/20 07:17:01;;;;;;;23.33;17.25;;;10.10;99.90;;;;;;2720389;39;20501;31
2021/11/20 07:19:46;;;;;;;26.17;18.10;;;10.10;99.90;;;;;;2621746;46;20075;31
2021/11/20 07:23:00;;;;;;;27.10;18.03;;;10.10;99.90;;;;;;2603700;54;20230;31
2021/11/20 07:25:41;;;;;;;24.43;17.03;;;10.10;99.90;;;;;;2603307;54;20175;31
2021/11/20 07:28:16;;;;;;;28.80;17.53;;;10.10;99.90;;;;;;2603369;54;22639;31
2021/11/20 07:30:52;;;;;;;24.45;18.10;;;10.10;99.90;;;;;;2621833;46;20915;31
2021/11/20 07:33:32;;;;;;;22.75;17.95;;;10.10;99.90;;;;;;2622101;46;20038;31
2021/11/20 07:36:07;;;;;;;23.75;18.20;;;10.10;99.90;;;;;;2621799;46;20794;31
2021/11/20 07:38:44;;;;;;;21.47;17.43;;;10.10;99.90;;;;;;2603651;54;20132;31
2021/11/20 07:41:27;;;;;;;25.30;18.07;;;10.10;99.90;;;;;;2603706;54;20026;31
2021/11/20 07:44:19;;;;;;;25.50;18.83;;;10.10;99.90;;;;;;2603443;54;20125;31
2021/11/20 07:46:54;;;;;;;28.45;19.10;;;10.10;99.90;;;;;;2606390;46;20758;31
2021/11/20 07:49:39;;;;;;;25.60;18.10;;;10.10;99.90;;;;;;2603241;54;20029;31
2021/11/20 07:52:15;;;;;;;24.25;17.27;;;10.10;99.90;;;;;;2603415;54;20254;31
2021/11/20 07:54:54;;;;;;;21.33;16.67;;;10.00;99.90;;;;;;2622136;46;20844;31
2021/11/20 07:57:32;;;;;;;25.50;17.50;;;10.10;99.90;;;;;;2603309;54;20577;31
2021/11/20 08:00:17;;;;;;;23.30;17.75;;;10.10;99.90;;;;;;2602549;54;20063;31
2021/11/20 08:03:00;;;;;;;19.83;15.95;;;10.10;99.90;;;;;;2603539;54;20913;31
2021/11/20 08:06:07;;;;;;;25.45;18.70;;;10.10;99.90;;;;;;2603291;54;20844;31
2021/11/20 08:08:50;;;;;;;23.27;18.20;;;10.20;99.90;;;;;;2603408;54;20848;31
2021/11/20 08:11:30;;;;;;;23.92;16.58;;;10.10;99.90;;;;;;2603320;54;20112;31
2021/11/20 08:14:12;;;;;;;24.23;18.35;;;10.10;99.90;;;;;;2603249;54;20022;31
2021/11/20 08:16:59;;;;;;;25.70;19.95;;;10.20;99.90;;;;;;2603523;54;20824;31
2021/11/20 08:19:53;;;;;;;22.13;17.80;;;10.10;99.90;;;;;;2603442;54;20057;31
2021/11/20 08:22:46;;;;;;;24.33;18.77;;;10.20;99.90;;;;;;2603318;54;20160;31
2021/11/20 08:25:25;;;;;;;24.80;19.00;;;10.20;99.90;;;;;;2621653;46;20027;31
2021/11/20 08:28:01;;;;;;;25.35;18.05;;;10.20;99.90;;;;;;2603440;54;20824;31
2021/11/20 08:30:38;;;;;;;23.05;17.98;;;10.20;99.90;;;;;;2603189;54;20056;31
2021/11/20 08:33:13;;;;;;;23.20;18.05;;;10.20;99.90;;;;;;2603411;54;20770;31
2021/11/20 08:36:09;;;;;;;21.90;17.20;;;10.20;99.90;;;;;;2603349;54;20032;31
2021/11/20 08:39:07;;;;;;;23.88;18.10;;;10.20;99.90;;;;;;2603531;54;20026;31
2021/11/20 08:41:41;;;;;;;23.13;17.70;;;10.30;99.90;;;;;;2603349;54;20026;31
2021/11/20 08:44:16;;;;;;;23.95;17.30;;;10.30;99.90;;;;;;2603205;54;20034;31
2021/11/20 08:47:03;;;;;;;25.55;18.20;;;10.30;99.90;;;;;;2701604;39;20439;31
2021/11/20 08:49:42;;;;;;;18.52;16.00;;;10.30;99.90;;;;;;2621769;46;20097;31
2021/11/20 08:52:20;;;;;;;22.17;15.63;;;10.30;99.90;;;;;;2603208;54;20908;31
2021/11/20 08:54:56;;;;;;;18.50;14.90;;;10.30;99.90;;;;;;2603089;54;20878;31
2021/11/20 08:57:33;;;;;;;20.65;14.82;;;10.30;99.90;;;;;;2603094;54;21035;31
2021/11/20 09:00:28;;;;;;;19.95;15.65;;;10.40;99.90;;;;;;2603296;54;20551;31
2021/11/20 09:03:32;;;;;;;17.33;14.15;;;10.40;99.90;;;;;;2603093;54;20806;31
2021/11/20 09:06:08;;;;;;;14.85;13.13;;;10.40;99.90;;;;;;2603287;54;20892;31
2021/11/20 09:08:45;;;;;;;15.40;12.68;;;10.50;99.90;;;;;;2621455;46;20054;31
2021/11/20 09:11:23;;;;;;;13.37;11.80;;;10.50;99.90;;;;;;2603257;54;22391;31
2021/11/20 09:14:02;;;;;;;15.63;12.43;;;10.60;99.90;;;;;;2621335;46;20918;31
2021/11/20 09:16:44;;;;;;;;;;;10.60;99.90;;;;;;2603487;54;20027;31
2021/11/20 09:19:21;;;;;;;16.58;12.48;;;10.60;99.90;;;;;;2621509;46;19946;31
2021/11/20 09:22:02;;;;;;;14.23;11.73;;;10.70;99.90;;;;;;2603237;54;20023;31
2021/11/20 09:24:57;;;;;;;17.45;12.18;;;10.60;99.90;;;;;;2603529;54;20904;31
2021/11/20 09:27:54;;;;;;;14.18;11.60;;;10.70;99.90;;;;;;2603016;54;20181;31
2021/11/20 09:30:32;;;;;;;15.85;11.00;;;10.70;99.90;;;;;;2603080;54;20879;31
2021/11/20 09:33:06;;;;;;;14.87;11.60;;;10.70;99.90;;;;;;2602988;54;20930;31
2021/11/20 09:35:48;;;;;;;13.38;11.98;;;10.70;99.90;;;;;;2603069;54;20057;31
2021/11/20 09:38:41;;;;;;;15.70;11.85;;;10.70;99.90;;;;;;2603094;54;20100;31
2021/11/20 09:41:17;;;;;;;;;;;10.70;99.90;;;;;;2603418;54;20026;31
2021/11/20 09:43:53;;;;;;;14.25;11.30;;;10.70;99.90;;;;;;2603241;54;20827;31
2021/11/20 09:46:31;;;;;;;16.15;11.68;;;10.70;99.90;;;;;;2602998;54;20029;31
2021/11/20 09:49:12;;;;;;;13.70;11.40;;;10.70;99.90;;;;;;2603069;54;20839;31
2021/11/20 09:57:37;;;;;;;12.48;10.68;;;10.70;99.90;;;;;;2602678;54;20847;31
2021/11/20 10:00:46;;;;;;;13.05;11.20;;;10.70;99.90;;;;;;2603131;54;20030;31
2021/11/20 10:03:31;;;;;;;13.70;11.95;;;10.70;99.90;;;;;;2603283;54;20026;31
2021/11/20 10:06:07;;;;;;;16.52;12.98;;;10.70;99.90;;;;;;2602987;54;20034;31
2021/11/20 10:08:43;;;;;;;16.83;14.73;;;10.70;99.90;;;;;;2603081;54;20046;31
2021/11/20 10:11:32;;;;;;;14.35;12.40;;;10.70;99.90;;;;;;2621171;46;20026;31
2021/11/20 10:14:11;;;;;;;13.80;11.00;;;10.70;99.90;;;;;;2603244;54;20084;31
2021/11/20 10:16:49;;;;;;;15.20;11.70;;;10.70;99.90;;;;;;2603236;54;20833;31
2021/11/20 10:19:29;;;;;;;15.60;12.45;;;10.70;99.90;;;;;;2602125;54;20034;31
2021/11/20 10:22:16;;;;;;;14.95;12.40;;;10.80;99.90;;;;;;2603069;54;20027;31
2021/11/20 10:24:55;;;;;;;14.18;12.13;;;10.80;99.90;;;;;;2602913;54;20038;31
2021/11/20 10:27:55;;;;;;;12.17;10.97;;;10.80;99.90;;;;;;2603069;54;20869;31
2021/11/20 10:30:41;;;;;;;14.63;11.30;;;10.80;99.90;;;;;;2602881;54;20583;31
2021/11/20 10:33:21;;;;;;;15.00;11.77;;;10.80;99.90;;;;;;2621257;47;20572;31
2021/11/20 10:36:06;;;;;;;12.53;11.23;;;10.80;99.90;;;;;;2621039;47;20068;31
2021/11/20 10:38:45;;;;;;;12.20;10.90;;;10.80;99.90;;;;;;2602999;54;20050;31
2021/11/20 10:41:22;;;;;;;11.15;10.02;;;10.80;99.90;;;;;;2603005;54;20023;31
2021/11/20 10:44:15;;;;;;;12.20;9.90;;;10.80;99.90;;;;;;2719812;39;20482;31
2021/11/20 10:47:00;;;;;;;13.65;10.93;;;10.80;99.90;;;;;;2602974;54;20026;31
2021/11/20 10:52:29;;;;;;;10.90;9.80;;;10.80;99.90;;;;;;2602745;54;22430;31
2021/11/20 10:55:18;;;;;;;11.15;9.75;;;10.90;99.90;;;;;;2602788;54;20023;31
2021/11/20 11:01:36;;;;;;;12.47;10.10;;;10.90;99.90;;;;;;2915141;46;20905;31
2021/11/20 11:04:22;;;;;;;10.82;9.82;;;10.90;99.90;;;;;;2602905;54;20238;31
2021/11/20 11:09:43;;;;;;;11.70;10.50;;;10.90;99.90;;;;;;2603405;54;20022;31
2021/11/20 11:12:21;;;;;;;;;;;10.90;99.90;;;;;;2622286;46;20033;31
2021/11/20 11:15:30;;;;;;;10.50;9.25;;;10.90;99.90;;;;;;2603747;54;20787;31
2021/11/20 11:18:03;;;;;;;13.30;10.57;;;10.90;99.90;;;;;;2603549;54;20036;31
2021/11/20 11:21:14;;;;;;;12.30;10.15;;;10.90;99.90;;;;;;2622060;46;19950;31
2021/11/20 11:23:59;;;;;;;13.88;11.20;;;10.90;99.90;;;;;;2603703;54;20070;31
2021/11/20 11:26:36;;;;;;;15.32;10.88;;;10.90;99.90;;;;;;2603611;54;20900;31
2021/11/20 11:29:16;;;;;;;15.35;12.02;;;10.90;99.90;;;;;;2603433;54;20086;31
2021/11/20 11:31:51;;;;;;;13.15;10.88;;;11.00;99.90;;;;;;2603478;54;20764;31
2021/11/20 11:34:30;;;;;;;11.63;9.97;;;11.00;99.90;;;;;;2603511;54;20031;31
2021/11/20 11:37:13;;;;;;;11.02;9.18;;;11.00;99.90;;;;;;2603471;54;20250;31
2021/11/20 11:39:51;;;;;;;9.63;6.97;;;11.00;99.90;;;;;;2603680;54;20046;31
2021/11/20 11:42:40;;;;;;;9.65;8.18;;;11.10;99.90;;;;;;2622121;46;20038;31
2021/11/20 11:45:38;;;;;;;10.45;8.80;;;11.20;99.90;;;;;;2603474;54;20031;31
2021/11/20 11:48:19;;;;;;;9.85;8.80;;;11.20;99.90;;;;;;2622306;46;20042;31
2021/11/20 11:51:04;;;;;;;9.70;8.45;;;11.10;99.90;;;;;;2603560;54;20077;31
2021/11/20 11:53:56;;;;;;;10.38;9.27;;;11.10;99.90;;;;;;2603617;54;20050;31
2021/11/20 11:56:32;;;;;;;11.77;9.23;;;11.10;99.90;;;;;;2603638;54;20107;31
2021/11/20 11:59:14;;;;;;;11.13;9.60;;;11.10;99.90;;;;;;2603360;54;20943;31
2021/11/20 12:02:05;;;;;;;9.30;8.30;;;11.10;99.90;;;;;;2603497;54;20847;31
2021/11/20 12:04:43;;;;;;;12.43;9.55;;;11.10;99.90;;;;;;2603414;54;20030;31
2021/11/20 12:07:42;;;;;;;14.43;10.43;;;11.00;99.90;;;;;;2602606;54;20030;31
2021/11/20 12:10:47;;;;;;;11.23;9.37;;;11.00;99.90;;;;;;2603559;54;20108;31
2021/11/20 12:13:45;;;;;;;10.68;9.57;;;11.00;99.90;;;;;;2603599;54;20901;31
2021/11/20 12:16:36;;;;;;;10.45;9.35;;;11.00;99.90;;;;;;2603517;54;20026;31
2021/11/20 12:19:12;;;;;;;11.57;9.40;;;11.00;99.90;;;;;;2603332;54;20890;31
2021/11/20 12:21:58;;;;;;;11.53;9.83;;;11.00;99.90;;;;;;2603034;54;20035;31
2021/11/20 12:24:35;;;;;;;12.25;10.65;;;11.00;99.90;;;;;;2603274;54;20253;31
2021/11/20 12:27:11;;;;;;;26.05;9.43;;;10.90;99.90;;;;;;2603589;54;20044;31
2021/11/20 12:30:10;;;;;;;11.68;9.80;;;11.00;99.90;;;;;;2621933;46;20027;31
2021/11/20 12:32:55;;;;;;;11.50;10.23;;;11.10;99.90;;;;;;2720135;39;20485;31
2021/11/20 12:35:41;;;;;;;11.27;10.10;;;11.10;99.90;;;;;;2603234;54;20119;31
2021/11/20 12:38:22;;;;;;;13.68;10.85;;;11.10;99.90;;;;;;2622176;46;20023;31
2021/11/20 12:41:10;;;;;;;13.95;10.40;;;11.10;99.90;;;;;;2603077;54;20948;31
2021/11/20 12:44:12;;;;;;;14.73;11.90;;;11.00;99.90;;;;;;2603439;54;20026;31
2021/11/20 12:47:10;;;;;;;14.27;10.55;;;11.00;99.90;;;;;;2701780;39;20723;31
2021/11/20 12:49:46;;;;;;;14.32;12.00;;;11.00;99.90;;;;;;2603332;54;19935;31
2021/11/20 12:52:35;;;;;;;13.90;11.70;;;11.00;99.90;;;;;;2603286;54;20858;31
2021/11/20 12:55:35;;;;;;;14.00;12.20;;;10.90;99.90;;;;;;2603240;54;20089;31
2021/11/20 12:58:12;;;;;;;14.67;12.10;;;10.90;99.90;;;;;;2603276;54;20053;31
2021/11/20 13:00:49;;;;;;;15.80;12.40;;;10.90;99.90;;;;;;2603150;54;20305;31
2021/11/20 13:03:33;;;;;;;16.08;12.30;;;10.90;99.90;;;;;;2603277;54;19996;31
2021/11/20 13:06:11;;;;;;;16.63;13.07;;;10.90;99.90;;;;;;2603509;54;20048;31
2021/11/20 13:08:57;;;;;;;15.17;11.60;;;10.90;99.90;;;;;;2612861;46;20308;31
2021/11/20 13:11:36;;;;;;;13.10;11.27;;;10.90;99.90;;;;;;2602888;54;19942;31
2021/11/20 13:14:13;;;;;;;14.73;12.20;;;11.10;99.90;;;;;;2603342;54;20263;31
2021/11/20 13:17:01;;;;;;;14.77;11.63;;;11.10;99.90;;;;;;2621438;46;21300;31
2021/11/20 13:20:01;;;;;;;16.95;12.77;;;11.10;99.90;;;;;;2603146;54;20900;31
2021/11/20 13:22:39;;;;;;;15.10;11.80;;;11.10;99.90;;;;;;2602434;54;20876;31
2021/11/20 13:25:15;;;;;;;14.27;12.13;;;11.00;99.90;;;;;;2621192;46;20120;31
2021/11/20 13:28:00;;;;;;;16.95;12.95;;;11.00;99.90;;;;;;2603016;54;20984;31
2021/11/20 13:30:41;;;;;;;17.15;13.20;;;10.90;99.90;;;;;;2603098;54;20810;31
2021/11/20 13:33:17;;;;;;;17.95;13.57;;;10.90;99.90;;;;;;2603210;54;20872;31
2021/11/20 13:35:58;;;;;;;17.25;13.00;;;10.90;99.90;;;;;;2603219;54;20756;31
2021/11/20 13:38:32;;;;;;;18.20;12.80;;;10.90;99.90;;;;;;2603053;54;20104;31
2021/11/20 13:41:09;;;;;;;15.50;11.55;;;10.90;99.90;;;;;;2603036;54;20052;31
2021/11/20 13:43:47;;;;;;;;;;;10.90;99.90;;;;;;2603304;54;20081;31
2021/11/20 13:46:26;;;;;;;17.30;12.93;;;10.90;99.90;;;;;;2621709;46;20756;31
2021/11/20 13:49:07;;;;;;;16.50;13.57;;;10.80;99.90;;;;;;2603110;54;20874;31
2021/11/20 13:51:42;;;;;;;16.17;13.43;;;10.80;99.90;;;;;;2603095;54;20031;31
2021/11/20 13:54:20;;;;;;;20.05;15.50;;;10.80;99.90;;;;;;2602843;54;20056;31
2021/11/20 13:57:00;;;;;;;20.95;15.40;;;10.80;99.90;;;;;;2621414;46;20048;31
2021/11/20 13:59:39;;;;;;;19.73;14.63;;;10.70;99.90;;;;;;2603043;54;20030;31
2021/11/20 14:02:17;;;;;;;17.92;15.43;;;10.80;99.90;;;;;;2602737;54;20115;31
2021/11/20 14:04:55;;;;;;;22.25;16.20;;;10.70;99.90;;;;;;2603128;54;20745;31
2021/11/20 14:07:34;;;;;;;24.80;16.20;;;10.70;99.90;;;;;;2603128;54;20736;31
2021/11/20 14:10:17;;;;;;;21.40;16.13;;;10.70;99.90;;;;;;2621215;46;20932;31
2021/11/20 14:13:01;;;;;;;19.40;16.15;;;10.70;99.90;;;;;;2621203;46;20913;31
2021/11/20 14:15:50;;;;;;;21.10;15.73;;;10.70;99.90;;;;;;2602967;54;20917;31
2021/11/20 14:18:26;;;;;;;16.15;13.15;;;10.70;99.90;;;;;;2603269;54;20853;31
2021/11/20 14:21:03;;;;;;;18.58;14.60;;;10.70;99.90;;;;;;2607745;46;20076;31
2021/11/20 14:23:44;;;;;;;20.48;13.98;;;10.70;99.90;;;;;;2603045;54;20702;31
2021/11/20 14:26:20;;;;;;;16.60;13.57;;;10.70;99.90;;;;;;2602992;54;20123;31
2021/11/20 14:29:02;;;;;;;17.38;14.88;;;10.70;99.90;;;;;;2603083;54;20903;31
2021/11/20 14:31:36;;;;;;;17.10;14.02;;;10.70;99.90;;;;;;2602884;54;20877;31
2021/11/20 14:34:18;;;;;;;16.88;13.32;;;10.70;99.90;;;;;;2603008;54;20970;31
2021/11/20 14:36:58;;;;;;;21.23;14.45;;;10.70;99.90;;;;;;2603137;54;20030;31
2021/11/20 14:39:47;;;;;;;18.13;13.20;;;10.70;99.90;;;;;;2621089;47;20034;31
2021/11/20 14:42:24;;;;;;;17.07;13.63;;;10.70;99.90;;;;;;2602900;54;20243;31
2021/11/20 14:45:07;;;;;;;16.98;15.10;;;10.70;99.90;;;;;;2603682;54;20574;31
2021/11/20 14:47:45;;;;;;;17.67;14.18;;;10.70;99.90;;;;;;2621982;46;20026;31